ETD268 OMAA-VOMM
Flight info
| Callsign | ETD268 |
|---|---|
| Flight time | N/A |
| Altitude | 33000 |
| Route | KANIP N318 TOLDA L555 TOTOX P574 OPAMO |
| Aircraft | A320/M-S/C |
Departure
| Time | N/A |
|---|---|
| Airport | Zayed International Airport (OMAA) |
Arrival
| Time | 2026-04-22 08:02 |
|---|---|
| Airport | Chennai International Airport (VOMM) |
| Time | Latitude | Longitude | Altitude | Speed | Heading |
|---|---|---|---|---|---|
| 2026-04-22 06:15 | 18.42047 | 69.24334 | 32925 ft | 453 kts | 117° |
| 2026-04-22 06:15 | 18.40548 | 69.27263 | 32925 ft | 454 kts | 117° |
| 2026-04-22 06:16 | 18.37651 | 69.33156 | 32926 ft | 453 kts | 115° |
| 2026-04-22 06:16 | 18.34888 | 69.39081 | 32926 ft | 454 kts | 115° |
| 2026-04-22 06:17 | 18.32107 | 69.45061 | 32927 ft | 454 kts | 116° |
| 2026-04-22 06:17 | 18.29332 | 69.51038 | 32927 ft | 454 kts | 116° |
| 2026-04-22 06:18 | 18.26559 | 69.57012 | 32928 ft | 455 kts | 116° |
| 2026-04-22 06:18 | 18.23783 | 69.62997 | 32928 ft | 455 kts | 116° |
| 2026-04-22 06:19 | 18.21009 | 69.68979 | 32931 ft | 455 kts | 116° |
| 2026-04-22 06:19 | 18.18248 | 69.74931 | 32935 ft | 456 kts | 116° |
| 2026-04-22 06:20 | 18.15461 | 69.80935 | 32930 ft | 457 kts | 116° |
| 2026-04-22 06:20 | 18.12673 | 69.86939 | 32909 ft | 456 kts | 116° |
| 2026-04-22 06:21 | 18.09887 | 69.92936 | 32908 ft | 456 kts | 116° |
| 2026-04-22 06:21 | 18.07115 | 69.98899 | 32908 ft | 456 kts | 116° |
| 2026-04-22 06:22 | 18.04326 | 70.04894 | 32909 ft | 456 kts | 116° |
| 2026-04-22 06:22 | 18.01529 | 70.10902 | 32909 ft | 456 kts | 116° |
| 2026-04-22 06:23 | 17.98749 | 70.16866 | 32910 ft | 457 kts | 116° |
| 2026-04-22 06:23 | 17.95956 | 70.22856 | 32911 ft | 456 kts | 116° |
| 2026-04-22 06:24 | 17.91760 | 70.31843 | 32910 ft | 457 kts | 116° |
| 2026-04-22 06:25 | 17.88980 | 70.37792 | 32910 ft | 457 kts | 117° |
| 2026-04-22 06:25 | 17.86172 | 70.43794 | 32910 ft | 458 kts | 117° |
| 2026-04-22 06:26 | 17.83361 | 70.49797 | 32910 ft | 458 kts | 117° |
| 2026-04-22 06:26 | 17.80550 | 70.55795 | 32911 ft | 459 kts | 117° |
| 2026-04-22 06:27 | 17.77699 | 70.61804 | 32911 ft | 459 kts | 118° |
| 2026-04-22 06:27 | 17.74841 | 70.67803 | 32911 ft | 460 kts | 118° |
| 2026-04-22 06:28 | 17.72004 | 70.73769 | 32911 ft | 460 kts | 118° |
| 2026-04-22 06:28 | 17.69150 | 70.79782 | 32912 ft | 461 kts | 118° |
| 2026-04-22 06:29 | 17.66288 | 70.85813 | 32912 ft | 462 kts | 118° |
| 2026-04-22 06:29 | 17.63429 | 70.91843 | 32913 ft | 462 kts | 118° |
| 2026-04-22 06:30 | 17.60566 | 70.97880 | 32905 ft | 462 kts | 118° |
| 2026-04-22 06:30 | 17.57694 | 71.03936 | 32905 ft | 463 kts | 119° |
| 2026-04-22 06:31 | 17.54846 | 71.09939 | 32905 ft | 463 kts | 119° |
| 2026-04-22 06:31 | 17.51977 | 71.15981 | 32906 ft | 463 kts | 119° |
| 2026-04-22 06:32 | 17.49102 | 71.22035 | 32908 ft | 464 kts | 119° |
| 2026-04-22 06:32 | 17.46224 | 71.28090 | 32908 ft | 464 kts | 119° |
| 2026-04-22 06:33 | 17.43338 | 71.34156 | 32909 ft | 464 kts | 119° |
| 2026-04-22 06:33 | 17.40459 | 71.40202 | 32910 ft | 464 kts | 119° |
| 2026-04-22 06:34 | 17.37592 | 71.46220 | 32911 ft | 465 kts | 119° |
| 2026-04-22 06:34 | 17.34693 | 71.52269 | 32912 ft | 465 kts | 120° |
| 2026-04-22 06:35 | 17.31778 | 71.58319 | 32913 ft | 465 kts | 120° |
| 2026-04-22 06:35 | 17.28868 | 71.64369 | 32914 ft | 465 kts | 120° |
| 2026-04-22 06:36 | 17.25973 | 71.70389 | 32916 ft | 465 kts | 120° |
| 2026-04-22 06:36 | 17.23068 | 71.76435 | 32917 ft | 465 kts | 120° |
| 2026-04-22 06:37 | 17.20160 | 71.82488 | 32918 ft | 466 kts | 120° |
| 2026-04-22 06:37 | 17.17256 | 71.88532 | 32920 ft | 465 kts | 120° |
| 2026-04-22 06:38 | 17.14836 | 71.93564 | 32922 ft | 465 kts | 120° |
| 2026-04-22 06:38 | 17.11928 | 71.99612 | 32923 ft | 465 kts | 120° |
| 2026-04-22 06:39 | 17.09017 | 72.05674 | 32925 ft | 468 kts | 121° |
| 2026-04-22 06:39 | 17.06150 | 72.11762 | 32927 ft | 466 kts | 121° |
| 2026-04-22 06:40 | 17.03284 | 72.17846 | 32929 ft | 467 kts | 121° |
| 2026-04-22 06:40 | 17.00413 | 72.23941 | 32930 ft | 467 kts | 121° |
| 2026-04-22 06:41 | 16.97543 | 72.30037 | 32931 ft | 467 kts | 121° |
| 2026-04-22 06:41 | 16.94673 | 72.36132 | 32934 ft | 467 kts | 121° |
| 2026-04-22 06:42 | 16.91821 | 72.42185 | 32936 ft | 468 kts | 121° |
| 2026-04-22 06:42 | 16.88950 | 72.48278 | 32939 ft | 467 kts | 121° |
| 2026-04-22 06:43 | 16.86081 | 72.54363 | 32941 ft | 467 kts | 122° |
| 2026-04-22 06:43 | 16.83204 | 72.60459 | 32944 ft | 467 kts | 122° |
| 2026-04-22 06:44 | 16.80331 | 72.66544 | 32947 ft | 467 kts | 122° |
| 2026-04-22 06:44 | 16.77450 | 72.72640 | 32949 ft | 468 kts | 122° |
| 2026-04-22 06:45 | 16.74578 | 72.78713 | 32953 ft | 467 kts | 122° |
| 2026-04-22 06:45 | 16.71720 | 72.84754 | 32950 ft | 467 kts | 122° |
| 2026-04-22 06:46 | 16.68842 | 72.90826 | 32949 ft | 467 kts | 122° |
| 2026-04-22 06:46 | 16.65959 | 72.96908 | 32930 ft | 467 kts | 122° |
| 2026-04-22 06:47 | 16.63080 | 73.02975 | 32928 ft | 466 kts | 122° |
| 2026-04-22 06:47 | 16.60198 | 73.09042 | 32929 ft | 467 kts | 123° |
| 2026-04-22 06:48 | 16.57267 | 73.15016 | 32931 ft | 464 kts | 124° |
| 2026-04-22 06:48 | 16.54291 | 73.20993 | 32933 ft | 465 kts | 124° |
| 2026-04-22 06:49 | 16.51319 | 73.26970 | 32934 ft | 464 kts | 124° |
| 2026-04-22 06:49 | 16.48349 | 73.32951 | 32936 ft | 464 kts | 124° |
| 2026-04-22 06:50 | 16.45383 | 73.38925 | 32937 ft | 464 kts | 124° |
| 2026-04-22 06:50 | 16.42439 | 73.44855 | 32938 ft | 463 kts | 124° |
| 2026-04-22 06:51 | 16.39479 | 73.50818 | 32940 ft | 463 kts | 124° |
| 2026-04-22 06:51 | 16.36523 | 73.56786 | 32941 ft | 464 kts | 124° |
| 2026-04-22 06:52 | 16.33625 | 73.62780 | 32942 ft | 463 kts | 124° |
| 2026-04-22 06:52 | 16.30730 | 73.68779 | 32943 ft | 463 kts | 124° |
| 2026-04-22 06:53 | 16.27838 | 73.74776 | 32944 ft | 463 kts | 124° |
| 2026-04-22 06:53 | 16.24946 | 73.80771 | 32944 ft | 463 kts | 124° |
| 2026-04-22 06:54 | 16.22062 | 73.86749 | 32957 ft | 462 kts | 124° |
| 2026-04-22 06:54 | 16.19194 | 73.92689 | 32964 ft | 462 kts | 124° |
| 2026-04-22 06:55 | 16.16310 | 73.98670 | 32966 ft | 462 kts | 124° |
| 2026-04-22 06:55 | 16.13431 | 74.04644 | 32968 ft | 462 kts | 124° |
| 2026-04-22 06:56 | 16.10547 | 74.10627 | 32970 ft | 462 kts | 124° |
| 2026-04-22 06:56 | 16.07682 | 74.16569 | 32974 ft | 462 kts | 124° |
| 2026-04-22 06:57 | 16.04801 | 74.22541 | 32986 ft | 462 kts | 124° |
| 2026-04-22 06:57 | 16.01916 | 74.28520 | 32985 ft | 462 kts | 124° |
| 2026-04-22 06:58 | 15.99031 | 74.34496 | 32993 ft | 462 kts | 124° |
| 2026-04-22 06:58 | 15.96147 | 74.40463 | 33001 ft | 462 kts | 124° |
| 2026-04-22 06:59 | 15.93259 | 74.46438 | 33010 ft | 462 kts | 124° |
| 2026-04-22 06:59 | 15.90367 | 74.52415 | 33016 ft | 462 kts | 124° |
| 2026-04-22 07:00 | 15.87499 | 74.58337 | 33020 ft | 462 kts | 124° |
| 2026-04-22 07:00 | 15.84555 | 74.64261 | 33022 ft | 460 kts | 126° |
| 2026-04-22 07:01 | 15.81520 | 74.70115 | 33021 ft | 460 kts | 126° |
| 2026-04-22 07:01 | 15.78483 | 74.75976 | 33019 ft | 460 kts | 126° |
| 2026-04-22 07:02 | 15.75448 | 74.81832 | 33015 ft | 460 kts | 126° |
| 2026-04-22 07:02 | 15.72414 | 74.87691 | 33010 ft | 460 kts | 126° |
| 2026-04-22 07:03 | 15.69382 | 74.93545 | 33005 ft | 461 kts | 126° |
| 2026-04-22 07:03 | 15.66347 | 74.99402 | 33000 ft | 461 kts | 126° |
| 2026-04-22 07:04 | 15.63320 | 75.05242 | 32995 ft | 461 kts | 126° |
| 2026-04-22 07:04 | 15.60294 | 75.11080 | 32990 ft | 461 kts | 126° |
| 2026-04-22 07:05 | 15.57252 | 75.16943 | 32985 ft | 461 kts | 126° |
| 2026-04-22 07:05 | 15.54214 | 75.22796 | 32983 ft | 461 kts | 126° |
| 2026-04-22 07:06 | 15.51171 | 75.28654 | 32979 ft | 461 kts | 126° |
| 2026-04-22 07:06 | 15.48133 | 75.34499 | 32976 ft | 461 kts | 126° |
| 2026-04-22 07:07 | 15.45111 | 75.40307 | 32974 ft | 461 kts | 126° |
| 2026-04-22 07:07 | 15.42070 | 75.46150 | 32972 ft | 461 kts | 126° |
| 2026-04-22 07:08 | 15.39022 | 75.52002 | 32971 ft | 461 kts | 126° |
| 2026-04-22 07:08 | 15.35978 | 75.57840 | 32980 ft | 461 kts | 126° |
| 2026-04-22 07:09 | 15.32930 | 75.63683 | 32981 ft | 461 kts | 126° |
| 2026-04-22 07:09 | 15.29878 | 75.69527 | 32980 ft | 461 kts | 126° |
| 2026-04-22 07:10 | 15.26828 | 75.75364 | 32979 ft | 461 kts | 126° |
| 2026-04-22 07:10 | 15.23797 | 75.81159 | 32979 ft | 461 kts | 126° |
| 2026-04-22 07:11 | 15.20739 | 75.87002 | 32980 ft | 461 kts | 126° |
| 2026-04-22 07:11 | 15.17685 | 75.92834 | 32985 ft | 460 kts | 126° |
| 2026-04-22 07:12 | 15.14627 | 75.98667 | 32990 ft | 461 kts | 127° |
| 2026-04-22 07:12 | 15.11637 | 76.04548 | 32990 ft | 462 kts | 125° |
| 2026-04-22 07:13 | 15.08705 | 76.10402 | 32991 ft | 461 kts | 125° |
| 2026-04-22 07:13 | 15.05758 | 76.16299 | 32991 ft | 460 kts | 125° |
| 2026-04-22 07:14 | 15.02818 | 76.22189 | 32991 ft | 460 kts | 125° |
| 2026-04-22 07:14 | 14.99882 | 76.28072 | 32991 ft | 461 kts | 125° |
| 2026-04-22 07:15 | 14.96941 | 76.33970 | 32991 ft | 461 kts | 125° |
| 2026-04-22 07:15 | 14.94005 | 76.39857 | 32992 ft | 461 kts | 125° |
| 2026-04-22 07:16 | 14.91088 | 76.45704 | 32992 ft | 461 kts | 125° |
| 2026-04-22 07:16 | 14.88150 | 76.51591 | 32992 ft | 461 kts | 125° |
| 2026-04-22 07:17 | 14.85211 | 76.57480 | 32992 ft | 461 kts | 125° |
| 2026-04-22 07:17 | 14.82267 | 76.63375 | 32992 ft | 461 kts | 125° |
| 2026-04-22 07:18 | 14.79326 | 76.69260 | 32991 ft | 461 kts | 124° |
| 2026-04-22 07:18 | 14.76404 | 76.75105 | 32993 ft | 461 kts | 124° |
| 2026-04-22 07:19 | 14.73461 | 76.80988 | 32994 ft | 461 kts | 124° |
| 2026-04-22 07:19 | 14.70516 | 76.86869 | 32995 ft | 461 kts | 125° |
| 2026-04-22 07:20 | 14.67570 | 76.92750 | 32995 ft | 461 kts | 125° |
| 2026-04-22 07:20 | 14.64621 | 76.98632 | 32996 ft | 461 kts | 125° |
| 2026-04-22 07:21 | 14.61690 | 77.04473 | 32997 ft | 461 kts | 124° |
| 2026-04-22 07:21 | 14.58773 | 77.10375 | 32997 ft | 462 kts | 123° |
| 2026-04-22 07:22 | 14.56031 | 77.16395 | 32998 ft | 463 kts | 122° |
| 2026-04-22 07:22 | 14.53311 | 77.22426 | 32999 ft | 463 kts | 122° |
| 2026-04-22 07:23 | 14.50596 | 77.28452 | 33000 ft | 463 kts | 122° |
| 2026-04-22 07:23 | 14.47879 | 77.34484 | 33001 ft | 462 kts | 122° |
| 2026-04-22 07:24 | 14.45190 | 77.40454 | 32978 ft | 462 kts | 122° |
| 2026-04-22 07:24 | 14.42475 | 77.46478 | 32965 ft | 462 kts | 122° |
| 2026-04-22 07:25 | 14.39767 | 77.52488 | 32962 ft | 462 kts | 122° |
| 2026-04-22 07:25 | 14.37052 | 77.58508 | 32959 ft | 461 kts | 122° |
| 2026-04-22 07:26 | 14.34347 | 77.64499 | 32956 ft | 461 kts | 122° |
| 2026-04-22 07:26 | 14.31634 | 77.70503 | 32936 ft | 461 kts | 122° |
| 2026-04-22 07:27 | 14.28934 | 77.76471 | 32907 ft | 461 kts | 121° |
| 2026-04-22 07:27 | 14.26221 | 77.82467 | 32901 ft | 461 kts | 121° |
| 2026-04-22 07:28 | 14.22603 | 77.90454 | 32895 ft | 461 kts | 121° |
| 2026-04-22 07:28 | 14.19883 | 77.96450 | 32892 ft | 461 kts | 121° |
| 2026-04-22 07:29 | 14.17167 | 78.02434 | 32887 ft | 461 kts | 121° |
| 2026-04-22 07:29 | 14.14444 | 78.08429 | 32883 ft | 461 kts | 121° |
| 2026-04-22 07:30 | 14.11719 | 78.14423 | 32879 ft | 461 kts | 121° |
| 2026-04-22 07:30 | 14.09013 | 78.20370 | 32874 ft | 461 kts | 121° |
| 2026-04-22 07:31 | 14.06284 | 78.26363 | 32870 ft | 461 kts | 121° |
| 2026-04-22 07:31 | 14.03563 | 78.32335 | 32844 ft | 457 kts | 122° |
| 2026-04-22 07:32 | 14.02231 | 78.35263 | 32343 ft | 449 kts | 122° |
| 2026-04-22 07:32 | 14.00896 | 78.38184 | 31406 ft | 452 kts | 122° |
| 2026-04-22 07:32 | 13.99561 | 78.41106 | 30714 ft | 449 kts | 121° |
| 2026-04-22 07:32 | 13.98241 | 78.43999 | 30074 ft | 444 kts | 121° |
| 2026-04-22 07:33 | 13.96922 | 78.46881 | 29364 ft | 442 kts | 121° |
| 2026-04-22 07:33 | 13.95621 | 78.49723 | 28795 ft | 438 kts | 121° |
| 2026-04-22 07:33 | 13.94326 | 78.52549 | 28167 ft | 434 kts | 120° |
| 2026-04-22 07:33 | 13.93042 | 78.55354 | 27558 ft | 431 kts | 120° |
| 2026-04-22 07:34 | 13.91770 | 78.58130 | 26955 ft | 427 kts | 119° |
| 2026-04-22 07:34 | 13.90506 | 78.60890 | 26314 ft | 424 kts | 119° |
| 2026-04-22 07:34 | 13.89266 | 78.63596 | 25735 ft | 419 kts | 118° |
| 2026-04-22 07:34 | 13.88015 | 78.66323 | 25123 ft | 416 kts | 118° |
| 2026-04-22 07:35 | 13.86788 | 78.68999 | 24524 ft | 412 kts | 118° |
| 2026-04-22 07:35 | 13.85570 | 78.71655 | 23930 ft | 409 kts | 117° |
| 2026-04-22 07:35 | 13.84360 | 78.74291 | 23352 ft | 405 kts | 117° |
| 2026-04-22 07:35 | 13.83176 | 78.76872 | 22800 ft | 401 kts | 117° |
| 2026-04-22 07:36 | 13.81987 | 78.79462 | 22260 ft | 397 kts | 116° |
| 2026-04-22 07:36 | 13.80814 | 78.82019 | 21745 ft | 393 kts | 116° |
| 2026-04-22 07:36 | 13.79653 | 78.84551 | 21222 ft | 389 kts | 116° |
| 2026-04-22 07:36 | 13.78503 | 78.87055 | 20715 ft | 385 kts | 116° |
| 2026-04-22 07:37 | 13.77361 | 78.89541 | 20192 ft | 382 kts | 116° |
| 2026-04-22 07:37 | 13.76230 | 78.91999 | 19699 ft | 378 kts | 116° |
| 2026-04-22 07:37 | 13.75111 | 78.94432 | 19194 ft | 374 kts | 115° |
| 2026-04-22 07:37 | 13.74003 | 78.96842 | 18700 ft | 371 kts | 115° |
| 2026-04-22 07:38 | 13.72905 | 78.99226 | 18213 ft | 367 kts | 115° |
| 2026-04-22 07:38 | 13.71819 | 79.01586 | 17710 ft | 364 kts | 115° |
| 2026-04-22 07:38 | 13.70753 | 79.03904 | 17231 ft | 360 kts | 115° |
| 2026-04-22 07:38 | 13.69684 | 79.06223 | 16757 ft | 357 kts | 115° |
| 2026-04-22 07:39 | 13.68628 | 79.08514 | 16297 ft | 353 kts | 114° |
| 2026-04-22 07:39 | 13.67582 | 79.10784 | 15819 ft | 350 kts | 114° |
| 2026-04-22 07:39 | 13.66545 | 79.13033 | 15356 ft | 346 kts | 114° |
| 2026-04-22 07:39 | 13.65518 | 79.15263 | 14875 ft | 343 kts | 114° |
| 2026-04-22 07:40 | 13.64501 | 79.17468 | 14412 ft | 340 kts | 114° |
| 2026-04-22 07:40 | 13.63494 | 79.19650 | 13946 ft | 337 kts | 114° |
| 2026-04-22 07:40 | 13.62494 | 79.21816 | 13500 ft | 333 kts | 114° |
| 2026-04-22 07:40 | 13.61503 | 79.23962 | 13062 ft | 329 kts | 114° |
| 2026-04-22 07:41 | 13.60529 | 79.26073 | 12888 ft | 329 kts | 114° |
| 2026-04-22 07:41 | 13.59547 | 79.28200 | 12843 ft | 329 kts | 114° |
| 2026-04-22 07:41 | 13.58566 | 79.30327 | 12830 ft | 330 kts | 114° |
| 2026-04-22 07:41 | 13.57585 | 79.32452 | 12826 ft | 330 kts | 114° |
| 2026-04-22 07:42 | 13.56600 | 79.34583 | 12825 ft | 329 kts | 114° |
| 2026-04-22 07:42 | 13.55616 | 79.36713 | 12824 ft | 329 kts | 114° |
| 2026-04-22 07:42 | 13.54631 | 79.38843 | 12823 ft | 330 kts | 114° |
| 2026-04-22 07:42 | 13.53647 | 79.40972 | 12822 ft | 330 kts | 114° |
| 2026-04-22 07:43 | 13.52665 | 79.43095 | 12822 ft | 330 kts | 114° |
| 2026-04-22 07:43 | 13.51691 | 79.45200 | 12821 ft | 330 kts | 114° |
| 2026-04-22 07:43 | 13.50694 | 79.47355 | 12821 ft | 330 kts | 114° |
| 2026-04-22 07:43 | 13.49723 | 79.49453 | 12821 ft | 329 kts | 114° |
| 2026-04-22 07:44 | 13.48738 | 79.51580 | 12821 ft | 329 kts | 114° |
| 2026-04-22 07:44 | 13.47752 | 79.53709 | 12822 ft | 330 kts | 114° |
| 2026-04-22 07:44 | 13.46767 | 79.55835 | 12823 ft | 330 kts | 114° |
| 2026-04-22 07:44 | 13.45783 | 79.57960 | 12824 ft | 330 kts | 114° |
| 2026-04-22 07:45 | 13.44799 | 79.60084 | 12826 ft | 330 kts | 114° |
| 2026-04-22 07:45 | 13.43813 | 79.62210 | 12828 ft | 329 kts | 114° |
| 2026-04-22 07:45 | 13.42826 | 79.64344 | 12830 ft | 329 kts | 112° |
| 2026-04-22 07:45 | 13.41992 | 79.66528 | 12805 ft | 326 kts | 109° |
| 2026-04-22 07:46 | 13.41222 | 79.68697 | 12298 ft | 324 kts | 108° |
| 2026-04-22 07:46 | 13.40459 | 79.70869 | 11853 ft | 320 kts | 108° |
| 2026-04-22 07:46 | 13.39709 | 79.73011 | 11349 ft | 319 kts | 108° |
| 2026-04-22 07:46 | 13.38959 | 79.75156 | 10825 ft | 318 kts | 108° |
| 2026-04-22 07:47 | 13.38229 | 79.77245 | 10588 ft | 309 kts | 108° |
| 2026-04-22 07:47 | 13.37516 | 79.79284 | 10498 ft | 295 kts | 108° |
| 2026-04-22 07:47 | 13.36838 | 79.81227 | 10331 ft | 286 kts | 108° |
| 2026-04-22 07:47 | 13.36167 | 79.83151 | 9891 ft | 286 kts | 108° |
| 2026-04-22 07:48 | 13.35498 | 79.85068 | 9525 ft | 285 kts | 108° |
| 2026-04-22 07:48 | 13.34832 | 79.86979 | 9118 ft | 284 kts | 108° |
| 2026-04-22 07:48 | 13.34168 | 79.88879 | 8912 ft | 282 kts | 108° |
| 2026-04-22 07:48 | 13.33507 | 79.90774 | 8766 ft | 279 kts | 108° |
| 2026-04-22 07:49 | 13.32866 | 79.92607 | 8672 ft | 267 kts | 108° |
| 2026-04-22 07:49 | 13.32250 | 79.94370 | 8593 ft | 257 kts | 108° |
| 2026-04-22 07:49 | 13.31657 | 79.96062 | 8506 ft | 247 kts | 108° |
| 2026-04-22 07:49 | 13.31096 | 79.97667 | 8416 ft | 237 kts | 108° |
| 2026-04-22 07:50 | 13.30543 | 79.99249 | 8143 ft | 235 kts | 108° |
| 2026-04-22 07:50 | 13.29990 | 80.00833 | 7827 ft | 235 kts | 108° |
| 2026-04-22 07:50 | 13.29440 | 80.02406 | 7555 ft | 233 kts | 108° |
| 2026-04-22 07:50 | 13.28894 | 80.03969 | 7253 ft | 232 kts | 108° |
| 2026-04-22 07:51 | 13.28348 | 80.05530 | 6960 ft | 232 kts | 109° |
| 2026-04-22 07:51 | 13.27805 | 80.07079 | 6691 ft | 230 kts | 109° |
| 2026-04-22 07:51 | 13.27265 | 80.08622 | 6405 ft | 229 kts | 109° |
| 2026-04-22 07:51 | 13.26726 | 80.10163 | 6097 ft | 229 kts | 109° |
| 2026-04-22 07:52 | 13.26190 | 80.11693 | 5832 ft | 227 kts | 109° |
| 2026-04-22 07:52 | 13.25656 | 80.13218 | 5543 ft | 226 kts | 109° |
| 2026-04-22 07:52 | 13.25123 | 80.14744 | 5228 ft | 227 kts | 110° |
| 2026-04-22 07:52 | 13.24592 | 80.16258 | 4970 ft | 225 kts | 110° |
| 2026-04-22 07:53 | 13.24064 | 80.17767 | 4694 ft | 224 kts | 111° |
| 2026-04-22 07:53 | 13.23538 | 80.19268 | 4404 ft | 224 kts | 111° |
| 2026-04-22 07:53 | 13.23011 | 80.20769 | 4140 ft | 222 kts | 111° |
| 2026-04-22 07:53 | 13.22491 | 80.22252 | 4033 ft | 223 kts | 112° |
| 2026-04-22 07:54 | 13.21970 | 80.23733 | 4004 ft | 223 kts | 112° |
| 2026-04-22 07:54 | 13.21443 | 80.25230 | 3957 ft | 221 kts | 112° |
| 2026-04-22 07:54 | 13.20923 | 80.26713 | 3678 ft | 221 kts | 112° |
| 2026-04-22 07:54 | 13.20471 | 80.28002 | 3447 ft | 220 kts | 112° |
| 2026-04-22 07:55 | 13.19954 | 80.29476 | 3168 ft | 220 kts | 113° |
| 2026-04-22 07:55 | 13.19438 | 80.30947 | 2903 ft | 219 kts | 113° |
| 2026-04-22 07:55 | 13.18923 | 80.32410 | 2648 ft | 217 kts | 113° |
| 2026-04-22 07:55 | 13.18412 | 80.33859 | 2533 ft | 217 kts | 113° |
| 2026-04-22 07:56 | 13.17870 | 80.35305 | 2500 ft | 216 kts | 120° |
| 2026-04-22 07:56 | 13.16979 | 80.36522 | 2494 ft | 213 kts | 140° |
| 2026-04-22 07:56 | 13.15724 | 80.37300 | 2492 ft | 210 kts | 161° |
| 2026-04-22 07:56 | 13.14344 | 80.37806 | 2498 ft | 211 kts | 161° |
| 2026-04-22 07:57 | 13.12966 | 80.38311 | 2494 ft | 210 kts | 162° |
| 2026-04-22 07:57 | 13.11601 | 80.38793 | 2494 ft | 211 kts | 162° |
| 2026-04-22 07:57 | 13.10197 | 80.39225 | 2487 ft | 210 kts | 171° |
| 2026-04-22 07:57 | 13.08764 | 80.39068 | 2488 ft | 211 kts | 201° |
| 2026-04-22 07:58 | 13.07591 | 80.38159 | 2501 ft | 214 kts | 226° |
| 2026-04-22 07:58 | 13.06751 | 80.36887 | 2500 ft | 216 kts | 238° |
| 2026-04-22 07:58 | 13.06084 | 80.35498 | 2501 ft | 219 kts | 242° |
| 2026-04-22 07:58 | 13.05490 | 80.34063 | 2500 ft | 218 kts | 244° |
| 2026-04-22 07:59 | 13.04926 | 80.32612 | 2500 ft | 219 kts | 245° |
| 2026-04-22 07:59 | 13.04393 | 80.31203 | 2523 ft | 200 kts | 245° |
| 2026-04-22 07:59 | 13.03917 | 80.29939 | 2386 ft | 192 kts | 245° |
| 2026-04-22 07:59 | 13.03440 | 80.28677 | 2133 ft | 188 kts | 245° |
| 2026-04-22 08:00 | 13.02973 | 80.27435 | 1886 ft | 184 kts | 245° |
| 2026-04-22 08:00 | 13.02526 | 80.26245 | 1647 ft | 174 kts | 246° |
| 2026-04-22 08:00 | 13.02100 | 80.25112 | 1422 ft | 165 kts | 246° |
| 2026-04-22 08:00 | 13.01699 | 80.24043 | 1213 ft | 157 kts | 246° |
| 2026-04-22 08:01 | 13.01312 | 80.23014 | 1005 ft | 153 kts | 246° |
| 2026-04-22 08:01 | 13.00938 | 80.22015 | 801 ft | 148 kts | 246° |
| 2026-04-22 08:01 | 13.00578 | 80.21049 | 591 ft | 144 kts | 246° |
| 2026-04-22 08:01 | 13.00209 | 80.20076 | 419 ft | 148 kts | 245° |
| 2026-04-22 08:02 | 12.99850 | 80.19109 | 242 ft | 144 kts | 246° |
| 2026-04-22 08:02 | 12.99500 | 80.18165 | 69 ft | 137 kts | 247° |
| 2026-04-22 08:02 | 12.99237 | 80.17471 | 67 ft | 63 kts | 248° |
| 2026-04-22 08:02 | 12.99146 | 80.17247 | 67 ft | 17 kts | 245° |
| 2026-04-22 08:03 | 12.99074 | 80.17206 | 67 ft | 14 kts | 158° |
| 2026-04-22 08:03 | 12.98989 | 80.17240 | 67 ft | 13 kts | 160° |
| 2026-04-22 08:03 | 12.98930 | 80.17196 | 67 ft | 12 kts | 250° |
| 2026-04-22 08:03 | 12.98897 | 80.17109 | 67 ft | 17 kts | 248° |
| 2026-04-22 08:04 | 12.98848 | 80.16984 | 67 ft | 20 kts | 248° |
| 2026-04-22 08:04 | 12.98797 | 80.16855 | 67 ft | 19 kts | 250° |
| 2026-04-22 08:04 | 12.98757 | 80.16746 | 67 ft | 15 kts | 233° |
| 2026-04-22 08:04 | 12.98676 | 80.16745 | 67 ft | 12 kts | 156° |
| 2026-04-22 08:05 | 12.98601 | 80.16765 | 67 ft | 11 kts | 205° |
| 2026-04-22 08:05 | 12.98567 | 80.16701 | 67 ft | 10 kts | 248° |
| 2026-04-22 08:05 | 12.98559 | 80.16679 | 67 ft | 10 kts | 248° |